Time;durP1;ratioP1;P1;durP2;ratioP2;P2;SDS_P1;SDS_P2;PMS_P1;PMS_P2;Temp;Humidity;BMP_temperature;BMP_pressure;BME280_temperature;BME280_humidity;BME280_pressure;Samples;Min_cycle;Max_cycle;Signal;HPM_P1;HPM_P2
2021/03/01 00:01:03;;;;;;;;;;;;;;;11.24;36.81;101445.84;5260387;27;32024;-87
2021/03/01 00:03:32;;;;;;;;;;;;;;;9.98;39.35;101442.78;5261163;27;33042;-87
2021/03/01 00:05:59;;;;;;;;;;;;;;;8.67;43.04;101450.41;5280874;27;33041;-87
2021/03/01 00:08:27;;;;;;;;;;;;;;;9.29;42.03;101443.69;5292190;27;33783;-87
2021/03/01 00:10:54;;;;;;;;;;;;;;;9.16;42.46;101444.47;5302502;27;33132;-88
2021/03/01 00:13:25;;;;;;;;;;;;;;;10.62;38.74;101434.84;5296485;27;34718;-87
2021/03/01 00:15:53;;;;;;;;;;;;;;;9.94;40.08;101445.41;5296438;27;34917;-87
2021/03/01 00:18:21;;;;;;;;;;;;;;;10.08;39.69;101447.97;5278610;27;33913;-87
2021/03/01 00:20:48;;;;;;;;;;;;;;;9.18;41.86;101447.97;5278142;27;32213;-87
2021/03/01 00:23:15;;;;;;;;;;;;;;;9.49;41.30;101446.28;5295995;27;34021;-87
2021/03/01 00:25:43;;;;;;;;;;;;;;;9.73;40.84;101439.34;5278253;27;33125;-87
2021/03/01 00:28:10;;;;;;;;;;;;;;;9.97;40.20;101427.16;5278134;27;32990;-87
2021/03/01 00:30:38;;;;;;;;;;;;;;;8.90;43.01;101428.84;5296329;27;32730;-86
2021/03/01 00:33:06;;;;;;;;;;;;;;;8.82;42.87;101427.06;5278315;27;34053;-87
2021/03/01 00:35:33;;;;;;;;;;;;;;;8.51;43.73;101423.50;5296109;27;34855;-87
2021/03/01 00:38:01;;;;;;;;;;;;;;;8.97;42.67;101425.38;5277941;27;34061;-86
2021/03/01 00:40:29;;;;;;;;;;;;;;;9.15;42.51;101421.97;5296173;27;32971;-87
2021/03/01 00:42:58;;;;;;;;;;;;;;;10.41;39.26;101421.03;5278656;27;32948;-87
2021/03/01 00:45:25;;;;;;;;;;;;;;;10.08;39.80;101408.91;5278048;27;33053;-86
2021/03/01 00:47:52;;;;;;;;;;;;;;;10.93;37.75;101413.84;5277980;27;32975;-87
2021/03/01 00:50:19;;;;;;;;;;;;;;;11.32;37.35;101406.66;5278028;27;32275;-87
2021/03/01 00:52:47;;;;;;;;;;;;;;;10.40;39.21;101402.78;5277731;27;33798;-87
2021/03/01 00:55:16;;;;;;;;;;;;;;;10.82;38.52;101396.53;5278029;27;33099;-87
2021/03/01 00:57:44;;;;;;;;;;;;;;;10.29;39.46;101401.06;5296056;27;33776;-87
2021/03/01 01:00:14;;;;;;;;;;;;;;;10.02;39.91;101395.06;5278093;27;32112;-87
2021/03/01 01:02:43;;;;;;;;;;;;;;;10.47;38.90;101389.72;5260880;27;32999;-87
2021/03/01 01:05:13;;;;;;;;;;;;;;;11.26;37.24;101381.47;5260547;27;34135;-87
2021/03/01 01:07:40;;;;;;;;;;;;;;;11.04;37.29;101380.75;5295840;27;34663;-87
2021/03/01 01:10:08;;;;;;;;;;;;;;;11.33;36.92;101371.84;5295764;27;33284;-87
2021/03/01 01:12:38;;;;;;;;;;;;;;;11.53;36.43;101366.47;5278247;27;34214;-87
2021/03/01 01:15:09;;;;;;;;;;;;;;;11.23;37.08;101354.53;5296163;27;34706;-87
2021/03/01 01:17:36;;;;;;;;;;;;;;;12.02;35.36;101365.16;5296277;27;33981;-87
2021/03/01 01:20:06;;;;;;;;;;;;;;;11.78;35.89;101369.69;5296423;27;33936;-87
2021/03/01 01:22:34;;;;;;;;;;;;;;;11.66;35.95;101360.25;5278021;27;33211;-87
2021/03/01 01:25:03;;;;;;;;;;;;;;;11.67;35.92;101361.97;5278043;27;34270;-87
2021/03/01 01:27:31;;;;;;;;;;;;;;;12.05;35.32;101359.88;5277810;27;33990;-87
2021/03/01 01:29:58;;;;;;;;;;;;;;;12.17;34.94;101353.66;5295963;27;33000;-87
2021/03/01 01:32:26;;;;;;;;;;;;;;;12.40;34.41;101357.72;5295792;27;33869;-87
2021/03/01 01:34:53;;;;;;;;;;;;;;;12.76;33.78;101360.72;5277759;27;33059;-87
2021/03/01 01:37:20;;;;;;;;;;;;;;;12.37;34.46;101361.25;5295675;27;34071;-87
2021/03/01 01:39:48;;;;;;;;;;;;;;;12.75;33.95;101346.81;5295960;27;33993;-87
2021/03/01 01:42:15;;;;;;;;;;;;;;;11.84;35.69;101345.25;5295729;27;34021;-87
2021/03/01 01:44:42;;;;;;;;;;;;;;;12.57;34.42;101352.28;5295895;27;34196;-87
2021/03/01 01:47:10;;;;;;;;;;;;;;;11.51;36.35;101350.81;5277792;27;33140;-86
2021/03/01 01:49:37;;;;;;;;;;;;;;;11.88;35.73;101344.34;5277727;27;32205;-87
2021/03/01 01:52:04;;;;;;;;;;;;;;;11.22;37.27;101348.47;5277512;27;33105;-87
2021/03/01 01:54:32;;;;;;;;;;;;;;;11.88;36.08;101349.56;5295533;27;34091;-87
2021/03/01 01:56:59;;;;;;;;;;;;;;;12.65;34.44;101334.72;5277569;27;33912;-87
2021/03/01 01:59:26;;;;;;;;;;;;;;;12.79;34.13;101347.59;5277857;27;34819;-87
2021/03/01 02:01:58;;;;;;;;;;;;;;;12.81;34.02;101346.69;5278619;27;33962;-87
2021/03/01 02:04:29;;;;;;;;;;;;;;;12.95;33.75;101348.22;5259771;27;33948;-87
2021/03/01 02:06:56;;;;;;;;;;;;;;;12.83;33.84;101351.91;5277716;27;34963;-87
2021/03/01 02:09:46;;;;;;;;;;;;;;;13.11;33.58;101348.84;5295858;27;33512;-87
2021/03/01 02:12:15;;;;;;;;;;;;;;;12.93;33.80;101355.25;5277886;27;33441;-87
2021/03/01 02:14:46;;;;;;;;;;;;;;;13.40;32.90;101366.78;5277597;27;34093;-87
2021/03/01 02:17:13;;;;;;;;;;;;;;;13.38;32.78;101371.16;5277355;27;33822;-87
2021/03/01 02:19:41;;;;;;;;;;;;;;;12.85;33.91;101360.59;5277604;27;32420;-87
2021/03/01 02:22:08;;;;;;;;;;;;;;;13.23;33.18;101356.53;5278202;27;32780;-88
2021/03/01 02:24:38;;;;;;;;;;;;;;;13.52;32.44;101337.75;5278744;27;32911;-87
2021/03/01 02:27:06;;;;;;;;;;;;;;;12.66;34.29;101346.94;5260622;27;32817;-87
2021/03/01 02:29:33;;;;;;;;;;;;;;;12.07;35.13;101355.47;5278179;27;32076;-87
2021/03/01 02:32:03;;;;;;;;;;;;;;;13.03;33.31;101354.25;5278777;27;33063;-87
2021/03/01 02:34:32;;;;;;;;;;;;;;;13.37;32.84;101351.09;5278207;27;33359;-87
2021/03/01 02:37:01;;;;;;;;;;;;;;;13.11;33.16;101356.72;5278494;27;32852;-87
2021/03/01 02:39:29;;;;;;;;;;;;;;;12.19;34.94;101363.19;5278480;27;32961;-87
2021/03/01 02:41:56;;;;;;;;;;;;;;;11.45;36.49;101363.91;5260707;27;33181;-87
2021/03/01 02:44:24;;;;;;;;;;;;;;;11.17;37.42;101374.56;5296360;27;34079;-87
2021/03/01 02:46:52;;;;;;;;;;;;;;;11.52;36.42;101375.16;5286454;27;32789;-87
2021/03/01 02:49:20;;;;;;;;;;;;;;;12.19;34.97;101378.00;5309629;27;33808;-87
2021/03/01 02:51:48;;;;;;;;;;;;;;;12.06;35.31;101379.00;5310850;27;34148;-87
2021/03/01 02:54:17;;;;;;;;;;;;;;;12.15;35.06;101376.31;5281354;27;34116;-87
2021/03/01 02:56:45;;;;;;;;;;;;;;;12.46;34.86;101383.78;5278805;27;34567;-87
2021/03/01 02:59:12;;;;;;;;;;;;;;;13.16;33.47;101373.22;5260120;27;33164;-87
2021/03/01 03:01:40;;;;;;;;;;;;;;;12.83;33.65;101375.44;5278679;27;33692;-87
2021/03/01 03:04:08;;;;;;;;;;;;;;;12.58;34.04;101378.41;5278522;27;32943;-87
2021/03/01 03:06:36;;;;;;;;;;;;;;;12.75;33.82;101383.41;5278308;27;34324;-87
2021/03/01 03:09:08;;;;;;;;;;;;;;;12.66;33.67;101388.78;5296352;27;33500;-87
2021/03/01 03:11:37;;;;;;;;;;;;;;;12.93;33.43;101395.34;5278267;27;34630;-87
2021/03/01 03:14:09;;;;;;;;;;;;;;;13.42;32.37;101401.62;5278556;27;33987;-87
2021/03/01 03:16:36;;;;;;;;;;;;;;;13.38;32.48;101401.72;5278484;27;33604;-87
2021/03/01 03:19:03;;;;;;;;;;;;;;;12.99;33.33;101410.09;5296241;27;33288;-87
2021/03/01 03:21:32;;;;;;;;;;;;;;;13.16;33.15;101415.97;5296103;27;34986;-87
2021/03/01 03:23:59;;;;;;;;;;;;;;;13.65;32.21;101419.59;5260492;27;33164;-88
2021/03/01 03:26:26;;;;;;;;;;;;;;;14.16;31.15;101417.78;5278338;27;33751;-88
2021/03/01 03:28:53;;;;;;;;;;;;;;;14.16;31.21;101417.78;5296331;27;33424;-87
2021/03/01 03:31:21;;;;;;;;;;;;;;;13.41;32.55;101426.06;5278031;27;32829;-87
2021/03/01 03:33:48;;;;;;;;;;;;;;;13.12;33.35;101429.09;5278267;27;33910;-87
2021/03/01 03:36:16;;;;;;;;;;;;;;;12.67;34.05;101433.19;5278401;27;32914;-87
2021/03/01 03:38:50;;;;;;;;;;;;;;;12.90;33.86;101424.19;5296333;27;32982;-88
2021/03/01 03:41:18;;;;;;;;;;;;;;;12.90;33.73;101426.78;5278073;27;33986;-87
2021/03/01 03:43:45;;;;;;;;;;;;;;;12.78;33.98;101437.44;5278216;27;34392;-88
2021/03/01 03:46:13;;;;;;;;;;;;;;;13.40;32.93;101436.56;5296006;27;34804;-87
2021/03/01 03:48:41;;;;;;;;;;;;;;;13.18;33.25;101434.25;5296006;27;33994;-87
2021/03/01 03:51:09;;;;;;;;;;;;;;;13.08;33.53;101448.34;5260407;27;33421;-87
2021/03/01 03:53:42;;;;;;;;;;;;;;;13.28;33.03;101456.78;5260148;27;33286;-87
2021/03/01 03:56:10;;;;;;;;;;;;;;;11.84;35.63;101447.13;5278450;27;35192;-87
2021/03/01 03:58:57;;;;;;;;;;;;;;;13.14;33.35;101450.91;5296126;27;33585;-87
2021/03/01 04:01:25;;;;;;;;;;;;;;;13.13;33.25;101459.63;5260368;27;33034;-87
2021/03/01 04:03:53;;;;;;;;;;;;;;;13.21;33.11;101468.22;5278270;27;33868;-87
2021/03/01 04:06:21;;;;;;;;;;;;;;;13.01;33.44;101476.34;5278037;27;33098;-87
2021/03/01 04:08:50;;;;;;;;;;;;;;;13.46;32.62;101471.37;5278105;27;33279;-87
2021/03/01 04:11:22;;;;;;;;;;;;;;;12.65;33.98;101475.94;5302798;27;34928;-87
2021/03/01 04:13:50;;;;;;;;;;;;;;;12.36;34.63;101475.41;5268585;27;33064;-86
2021/03/01 04:16:17;;;;;;;;;;;;;;;11.96;35.53;101473.16;5287135;27;33423;-87
2021/03/01 04:18:46;;;;;;;;;;;;;;;12.63;34.47;101481.19;5282972;27;33568;-87
2021/03/01 04:21:13;;;;;;;;;;;;;;;12.01;35.56;101487.03;5269464;27;33070;-87
2021/03/01 04:23:42;;;;;;;;;;;;;;;12.01;35.62;101476.59;5296370;27;34273;-87
2021/03/01 04:26:10;;;;;;;;;;;;;;;11.78;35.87;101483.72;5260385;27;33108;-86
2021/03/01 04:28:38;;;;;;;;;;;;;;;11.22;36.88;101499.78;5295880;27;33241;-88
2021/03/01 04:31:07;;;;;;;;;;;;;;;10.64;38.02;101520.00;5260201;27;32920;-86
2021/03/01 04:33:35;;;;;;;;;;;;;;;11.45;36.31;101510.06;5278181;27;35039;-86
2021/03/01 04:36:06;;;;;;;;;;;;;;;12.10;34.78;101513.94;5260130;27;33372;-87
2021/03/01 04:38:33;;;;;;;;;;;;;;;12.02;34.72;101507.06;5260474;27;32183;-88
2021/03/01 04:41:02;;;;;;;;;;;;;;;11.74;35.37;101505.50;5277784;27;34650;-88
2021/03/01 04:43:29;;;;;;;;;;;;;;;10.69;37.70;101518.25;5259572;27;32630;-87
2021/03/01 04:45:56;;;;;;;;;;;;;;;11.03;37.00;101507.69;5277974;27;33290;-87
2021/03/01 04:48:24;;;;;;;;;;;;;;;11.67;35.86;101502.09;5278167;27;31848;-87
2021/03/01 04:50:52;;;;;;;;;;;;;;;11.22;36.43;101509.34;5260512;27;33072;-87
2021/03/01 04:53:19;;;;;;;;;;;;;;;9.69;39.50;101511.37;5260208;27;33893;-87
2021/03/01 04:55:47;;;;;;;;;;;;;;;11.38;36.13;101516.22;5278124;27;33090;-87
2021/03/01 04:58:15;;;;;;;;;;;;;;;11.32;36.21;101522.31;5277929;27;32149;-87
2021/03/01 05:00:42;;;;;;;;;;;;;;;11.86;35.20;101523.72;5260207;27;32975;-87
2021/03/01 05:03:11;;;;;;;;;;;;;;;11.58;34.99;101529.13;5278171;27;34680;-87
2021/03/01 05:05:38;;;;;;;;;;;;;;;11.58;34.89;101525.66;5276498;27;33346;-87
2021/03/01 05:08:08;;;;;;;;;;;;;;;10.70;36.79;101534.75;5277804;27;32493;-87
2021/03/01 05:10:35;;;;;;;;;;;;;;;10.51;36.88;101532.19;5295703;27;34946;-87
2021/03/01 05:13:02;;;;;;;;;;;;;;;10.88;36.34;101546.00;5277482;27;33279;-88
2021/03/01 05:15:30;;;;;;;;;;;;;;;11.42;35.30;101535.31;5295707;27;33793;-88
2021/03/01 05:17:57;;;;;;;;;;;;;;;10.31;37.22;101545.19;5296682;27;33944;-87
2021/03/01 05:20:24;;;;;;;;;;;;;;;10.08;37.64;101549.56;5278039;27;33113;-88
2021/03/01 05:22:52;;;;;;;;;;;;;;;10.77;36.12;101553.84;5295937;27;34321;-87
2021/03/01 05:25:20;;;;;;;;;;;;;;;10.46;36.46;101561.72;5278137;27;33177;-86
2021/03/01 05:27:47;;;;;;;;;;;;;;;10.86;35.53;101554.69;5278184;27;32116;-87
2021/03/01 05:30:14;;;;;;;;;;;;;;;10.21;36.85;101559.13;5278215;27;32974;-87
2021/03/01 05:32:42;;;;;;;;;;;;;;;10.89;35.45;101559.03;5278263;27;34858;-87
2021/03/01 05:35:09;;;;;;;;;;;;;;;11.13;34.84;101557.22;5277563;27;32792;-87
2021/03/01 05:37:37;;;;;;;;;;;;;;;10.67;35.60;101563.44;5296579;27;33309;-87
2021/03/01 05:40:05;;;;;;;;;;;;;;;11.04;34.88;101563.31;5300436;27;34042;-86
2021/03/01 05:42:34;;;;;;;;;;;;;;;10.41;36.40;101581.72;5279586;27;33064;-87
2021/03/01 05:45:06;;;;;;;;;;;;;;;10.31;36.58;101583.44;5261933;27;32807;-88
2021/03/01 05:47:37;;;;;;;;;;;;;;;10.48;36.60;101586.91;5279971;27;33498;-89
2021/03/01 05:50:05;;;;;;;;;;;;;;;10.29;37.28;101583.44;5278467;27;34121;-90
2021/03/01 05:52:39;;;;;;;;;;;;;;;10.55;36.71;101595.59;5262069;27;33144;-89
2021/03/01 05:55:06;;;;;;;;;;;;;;;10.51;36.49;101599.09;5277756;27;34851;-89
2021/03/01 05:57:34;;;;;;;;;;;;;;;9.94;38.31;101609.44;5277863;27;32118;-89
2021/03/01 06:00:03;;;;;;;;;;;;;;;10.03;37.86;101606.84;5295833;27;35282;-89
2021/03/01 06:02:31;;;;;;;;;;;;;;;10.69;36.87;101603.41;5278248;27;33528;-89
2021/03/01 06:04:59;;;;;;;;;;;;;;;10.18;37.63;101627.72;5296312;27;33681;-90
2021/03/01 06:07:26;;;;;;;;;;;;;;;10.49;37.25;101612.13;5278227;27;32325;-89
2021/03/01 06:09:54;;;;;;;;;;;;;;;10.61;36.97;101615.56;5277863;27;32948;-89
2021/03/01 06:12:21;;;;;;;;;;;;;;;9.95;38.47;101622.47;5278051;27;33042;-89
2021/03/01 06:14:48;;;;;;;;;;;;;;;10.44;37.37;101619.06;5296088;27;34629;-89
2021/03/01 06:17:15;;;;;;;;;;;;;;;10.75;36.48;101633.81;5277840;27;32194;-90
2021/03/01 06:19:53;;;;;;;;;;;;;;;11.13;35.86;101630.25;5277548;27;33955;-89
2021/03/01 06:22:25;;;;;;;;;;;;;;;11.27;35.74;101632.81;5259615;27;33119;-89
2021/03/01 06:25:06;;;;;;;;;;;;;;;11.14;36.05;101637.19;5259673;27;33000;-90
2021/03/01 06:27:52;;;;;;;;;;;;;;;11.46;35.66;101642.31;5260305;27;33485;-90
2021/03/01 06:30:28;;;;;;;;;;;;;;;11.91;34.89;101649.03;5295582;27;32931;-89
2021/03/01 06:33:07;;;;;;;;;;;;;;;11.66;35.43;101655.28;5279689;27;34143;-85
2021/03/01 06:35:40;;;;;;;;;;;;;;;11.79;35.38;101655.19;5279192;27;33276;-90
2021/03/01 06:38:43;;;;;;;;;;;;;;;12.50;33.93;101654.78;5261564;27;32291;-88
2021/03/01 06:41:12;;;;;;;;;;;;;;;11.74;35.37;101656.97;5232862;27;34093;-88
2021/03/01 06:43:53;;;;;;;;;;;;;;;12.91;33.20;101653.53;5233919;27;34052;-90
2021/03/01 06:46:24;;;;;;;;;;;;;;;12.16;34.81;101660.25;5236416;27;32930;-87
2021/03/01 06:48:51;;;;;;;;;;;;;;;12.56;34.20;101662.53;5234564;27;33132;-88
2021/03/01 06:51:19;;;;;;;;;;;;;;;12.46;34.55;101676.59;5232592;27;34403;-86
2021/03/01 06:53:58;;;;;;;;;;;;;;;12.98;33.76;101675.25;5233702;27;33575;-85
2021/03/01 06:56:35;;;;;;;;;;;;;;;13.54;32.76;101680.75;5232349;27;34029;-85
2021/03/01 06:59:10;;;;;;;;;;;;;;;14.16;31.90;101679.91;5214872;27;32364;-87
2021/03/01 07:01:45;;;;;;;;;;;;;;;14.03;32.09;101693.19;5210845;27;34205;-90
2021/03/01 07:04:17;;;;;;;;;;;;;;;14.16;31.90;101691.28;5213429;27;33370;-87
2021/03/01 07:06:45;;;;;;;;;;;;;;;14.51;31.40;101684.63;5229897;27;33005;-84
2021/03/01 07:09:16;;;;;;;;;;;;;;;14.91;30.41;101679.62;5228316;27;33362;-84
2021/03/01 07:11:45;;;;;;;;;;;;;;;15.29;29.86;101684.16;5233469;27;32773;-89
2021/03/01 07:14:14;;;;;;;;;;;;;;;15.39;29.55;101684.81;5238941;27;34116;-86
2021/03/01 07:16:42;;;;;;;;;;;;;;;15.70;29.07;101682.44;5299049;27;34540;-89
2021/03/01 07:19:16;;;;;;;;;;;;;;;15.90;28.62;101683.81;5297226;27;33333;-84
2021/03/01 07:21:47;;;;;;;;;;;;;;;16.28;27.79;101683.81;5277801;27;33586;-85
2021/03/01 07:24:21;;;;;;;;;;;;;;;16.30;27.31;101696.03;5278430;27;34577;-85
2021/03/01 07:26:49;;;;;;;;;;;;;;;16.22;27.28;101690.09;5260252;27;32909;-85
2021/03/01 07:29:17;;;;;;;;;;;;;;;16.68;26.60;101688.09;5260308;27;31989;-85
2021/03/01 07:31:48;;;;;;;;;;;;;;;16.49;26.68;101688.53;5278055;27;34344;-84
2021/03/01 07:34:16;;;;;;;;;;;;;;;15.83;27.55;101692.69;5296486;27;34155;-84
2021/03/01 07:36:43;;;;;;;;;;;;;;;16.10;27.12;101685.97;5295474;27;34858;-84
2021/03/01 07:39:13;;;;;;;;;;;;;;;16.91;25.97;101687.53;5277357;27;32076;-84
2021/03/01 07:41:40;;;;;;;;;;;;;;;16.73;26.16;101686.22;5278108;27;34111;-84
2021/03/01 07:44:08;;;;;;;;;;;;;;;16.74;25.99;101687.94;5278113;27;32868;-84
2021/03/01 07:46:37;;;;;;;;;;;;;;;16.31;26.64;101692.50;5261374;27;33387;-89
2021/03/01 07:49:05;;;;;;;;;;;;;;;16.90;25.67;101688.44;5260119;27;32357;-89
2021/03/01 07:51:39;;;;;;;;;;;;;;;16.81;25.54;101688.66;5259493;27;34013;-90
2021/03/01 07:54:06;;;;;;;;;;;;;;;16.30;26.28;101693.41;5295984;27;34007;-90
2021/03/01 07:56:40;;;;;;;;;;;;;;;16.89;25.53;101694.56;5277670;27;34144;-90
2021/03/01 07:59:09;;;;;;;;;;;;;;;17.57;24.70;101694.50;5278166;27;32008;-89
2021/03/01 08:01:36;;;;;;;;;;;;;;;16.80;25.78;101703.56;5277943;27;34680;-90
2021/03/01 08:04:05;;;;;;;;;;;;;;;17.25;25.31;101702.41;5278447;27;33220;-89
2021/03/01 08:06:52;;;;;;;;;;;;;;;16.88;25.68;101706.00;5277826;27;34462;-91
2021/03/01 08:09:39;;;;;;;;;;;;;;;16.36;26.53;101716.91;5295944;27;33642;-90
2021/03/01 08:12:06;;;;;;;;;;;;;;;17.30;25.24;101720.75;5296028;27;33060;-90
2021/03/01 08:14:53;;;;;;;;;;;;;;;16.94;25.73;101719.03;5278005;27;33325;-90
2021/03/01 08:17:27;;;;;;;;;;;;;;;16.29;26.53;101717.97;5277624;27;32982;-90
2021/03/01 08:20:18;;;;;;;;;;;;;;;17.17;25.44;101726.31;5295879;27;33140;-90
2021/03/01 08:23:08;;;;;;;;;;;;;;;17.05;25.45;101723.16;5270656;27;33377;-90
2021/03/01 08:25:48;;;;;;;;;;;;;;;17.74;24.53;101734.41;5278126;27;33456;-91
2021/03/01 08:28:24;;;;;;;;;;;;;;;17.62;24.65;101740.91;5295926;27;33602;-90
2021/03/01 08:31:18;;;;;;;;;;;;;;;17.39;24.78;101738.94;5295782;27;32772;-90
2021/03/01 08:33:46;;;;;;;;;;;;;;;17.62;24.70;101740.06;5293083;27;34023;-90
2021/03/01 08:36:26;;;;;;;;;;;;;;;17.82;24.37;101745.59;5295618;27;34232;-89
2021/03/01 08:38:54;;;;;;;;;;;;;;;18.39;23.60;101750.06;5295647;27;33559;-90
2021/03/01 08:41:31;;;;;;;;;;;;;;;18.49;23.50;101762.06;5277855;27;32145;-91
2021/03/01 08:44:00;;;;;;;;;;;;;;;18.56;23.42;101758.34;5277646;27;33266;-90
2021/03/01 08:46:27;;;;;;;;;;;;;;;18.41;23.54;101751.75;5295613;27;34831;-90
2021/03/01 08:48:55;;;;;;;;;;;;;;;19.13;22.76;101755.59;5277272;27;32960;-91
2021/03/01 08:51:23;;;;;;;;;;;;;;;18.86;22.95;101758.22;5277743;27;33079;-89
2021/03/01 08:53:51;;;;;;;;;;;;;;;18.81;23.12;101760.16;5295505;27;34178;-89
2021/03/01 08:56:25;;;;;;;;;;;;;;;18.59;23.54;101755.59;5276754;27;33120;-90
2021/03/01 08:58:53;;;;;;;;;;;;;;;18.11;23.98;101759.72;5259664;27;33822;-90
2021/03/01 09:01:21;;;;;;;;;;;;;;;18.82;23.05;101772.44;5277610;27;32384;-91
2021/03/01 09:03:49;;;;;;;;;;;;;;;18.76;23.15;101759.44;5295864;27;34222;-90
2021/03/01 09:06:19;;;;;;;;;;;;;;;19.14;22.78;101765.25;5279370;27;34327;-90
2021/03/01 09:08:47;;;;;;;;;;;;;;;19.31;22.58;101765.50;5272352;27;33546;-89
2021/03/01 09:11:35;;;;;;;;;;;;;;;19.50;22.48;101767.50;5312784;27;33379;-90
2021/03/01 09:14:04;;;;;;;;;;;;;;;19.10;22.89;101753.06;5293646;27;34317;-90
2021/03/01 09:16:36;;;;;;;;;;;;;;;19.62;21.95;101753.81;5289228;27;35783;-90
2021/03/01 09:19:08;;;;;;;;;;;;;;;19.33;22.33;101747.84;5287615;27;33549;-90
2021/03/01 09:21:40;;;;;;;;;;;;;;;19.61;22.06;101759.16;5269212;27;33641;-89
2021/03/01 09:24:09;;;;;;;;;;;;;;;19.43;22.31;101756.28;5267550;27;33065;-92
2021/03/01 09:26:37;;;;;;;;;;;;;;;19.75;21.91;101754.22;5270424;27;33134;-90
2021/03/01 09:29:09;;;;;;;;;;;;;;;20.11;21.37;101745.84;5261008;27;32990;-91
2021/03/01 09:31:38;;;;;;;;;;;;;;;20.33;21.15;101755.59;5260307;27;32333;-91
2021/03/01 09:34:07;;;;;;;;;;;;;;;19.99;21.50;101762.19;5260075;27;34666;-91
2021/03/01 09:36:35;;;;;;;;;;;;;;;19.86;21.69;101761.78;5259899;27;33057;-92
2021/03/01 09:39:06;;;;;;;;;;;;;;;20.21;21.29;101766.66;5278359;27;33873;-91
2021/03/01 09:41:47;;;;;;;;;;;;;;;20.14;21.40;101769.56;5279718;27;32991;-91
2021/03/01 09:44:22;;;;;;;;;;;;;;;19.00;22.94;101777.16;5277899;27;34499;-91
2021/03/01 09:46:50;;;;;;;;;;;;;;;19.25;22.54;101773.69;5259154;27;35620;-91
2021/03/01 09:49:18;;;;;;;;;;;;;;;19.95;21.88;101771.19;5277751;27;33103;-91
2021/03/01 09:51:46;;;;;;;;;;;;;;;19.26;22.85;101769.25;5296031;27;33499;-91
2021/03/01 09:54:13;;;;;;;;;;;;;;;20.09;21.90;101768.87;5277727;27;32953;-91
2021/03/01 09:56:46;;;;;;;;;;;;;;;20.41;21.43;101773.78;5277302;27;33272;-91
2021/03/01 09:59:28;;;;;;;;;;;;;;;20.13;21.71;101774.88;5277873;27;33704;-91
2021/03/01 10:02:06;;;;;;;;;;;;;;;19.66;22.36;101781.91;5277713;27;32117;-91
2021/03/01 10:04:35;;;;;;;;;;;;;;;19.52;22.73;101786.81;5260144;27;33130;-91
2021/03/01 10:07:15;;;;;;;;;;;;;;;19.45;22.61;101782.66;5279282;27;35074;-92
2021/03/01 10:09:45;;;;;;;;;;;;;;;20.88;20.88;101780.78;5295342;27;34098;-91
2021/03/01 10:12:13;;;;;;;;;;;;;;;20.88;20.83;101789.56;5260249;27;32226;-92
2021/03/01 10:14:41;;;;;;;;;;;;;;;21.42;20.23;101779.31;5277272;27;33206;-92
2021/03/01 10:17:18;;;;;;;;;;;;;;;21.22;20.29;101772.25;5295483;27;34203;-91
2021/03/01 10:19:46;;;;;;;;;;;;;;;21.61;19.98;101781.19;5277855;27;34566;-92
2021/03/01 10:22:14;;;;;;;;;;;;;;;21.60;19.84;101782.97;5277361;27;32324;-91
2021/03/01 10:24:48;;;;;;;;;;;;;;;21.35;19.83;101784.03;5295619;27;33875;-92
2021/03/01 10:27:18;;;;;;;;;;;;;;;21.78;19.41;101780.44;5277427;27;34255;-92
2021/03/01 10:29:49;;;;;;;;;;;;;;;21.35;19.85;101784.03;5259495;27;33156;-90
2021/03/01 10:32:17;;;;;;;;;;;;;;;20.34;20.99;101787.28;5277812;27;32453;-91
2021/03/01 10:34:45;;;;;;;;;;;;;;;20.56;20.64;101791.72;5260065;27;33165;-92
2021/03/01 10:37:13;;;;;;;;;;;;;;;21.24;19.89;101796.03;5277626;27;33440;-91
2021/03/01 10:39:47;;;;;;;;;;;;;;;21.80;19.20;101800.63;5261413;27;33761;-90
2021/03/01 10:42:15;;;;;;;;;;;;;;;21.64;19.32;101792.50;5303780;27;33336;-93
2021/03/01 10:44:46;;;;;;;;;;;;;;;21.64;19.62;101786.34;5269178;27;33958;-91
2021/03/01 10:47:14;;;;;;;;;;;;;;;22.41;18.73;101796.06;5266212;27;32978;-93
2021/03/01 10:49:44;;;;;;;;;;;;;;;22.50;18.60;101794.78;5279232;27;33540;-91
2021/03/01 10:52:11;;;;;;;;;;;;;;;21.59;19.67;101796.28;5260529;27;33255;-92
2021/03/01 10:54:43;;;;;;;;;;;;;;;22.04;19.07;101796.94;5279157;27;34367;-93
2021/03/01 10:57:12;;;;;;;;;;;;;;;22.22;18.90;101800.50;5260627;27;33295;-92
2021/03/01 10:59:39;;;;;;;;;;;;;;;22.83;18.10;101794.06;5296380;27;35382;-92
2021/03/01 11:02:06;;;;;;;;;;;;;;;21.79;19.22;101800.69;5278547;27;33149;-92
2021/03/01 11:04:34;;;;;;;;;;;;;;;22.58;18.24;101800.56;5278413;27;34040;-92
2021/03/01 11:07:02;;;;;;;;;;;;;;;22.95;17.62;101790.75;5278332;27;33142;-93
2021/03/01 11:09:30;;;;;;;;;;;;;;;22.80;17.94;101802.16;5278828;27;32983;-91
2021/03/01 11:11:57;;;;;;;;;;;;;;;22.25;18.64;101797.72;5278464;27;33038;-93
2021/03/01 11:14:26;;;;;;;;;;;;;;;22.18;18.65;101791.84;5286445;27;33026;-92
2021/03/01 11:16:54;;;;;;;;;;;;;;;22.59;18.29;101802.28;5294640;27;32845;-92
2021/03/01 11:19:22;;;;;;;;;;;;;;;23.07;17.74;101801.69;5288563;27;33074;-93
2021/03/01 11:21:49;;;;;;;;;;;;;;;22.34;18.49;101789.31;5308302;27;32989;-92
2021/03/01 11:24:21;;;;;;;;;;;;;;;22.59;18.24;101782.81;5310200;27;34112;-91
2021/03/01 11:26:50;;;;;;;;;;;;;;;22.76;18.14;101785.53;5283982;27;34670;-93
2021/03/01 11:29:17;;;;;;;;;;;;;;;23.27;17.58;101785.63;5265555;27;33100;-93
2021/03/01 11:31:44;;;;;;;;;;;;;;;22.95;17.89;101789.91;5263488;27;32898;-94
2021/03/01 11:34:18;;;;;;;;;;;;;;;23.22;17.60;101786.81;5265415;27;32666;-93
2021/03/01 11:36:45;;;;;;;;;;;;;;;23.54;17.10;101782.44;5298570;27;34559;-94
2021/03/01 11:39:15;;;;;;;;;;;;;;;23.94;16.67;101780.31;5298433;27;34399;-92
2021/03/01 11:41:43;;;;;;;;;;;;;;;23.94;16.71;101779.47;5261645;27;32260;-93
2021/03/01 11:44:11;;;;;;;;;;;;;;;23.02;17.52;101776.22;5278644;27;33041;-92
2021/03/01 11:46:39;;;;;;;;;;;;;;;23.53;17.20;101778.06;5278685;27;33770;-94
2021/03/01 11:49:07;;;;;;;;;;;;;;;23.48;17.12;101774.78;5260739;27;33168;-93
2021/03/01 11:51:35;;;;;;;;;;;;;;;24.07;16.63;101761.00;5278541;27;31834;-93
2021/03/01 11:54:02;;;;;;;;;;;;;;;24.02;16.62;101758.59;5277881;27;33252;-94
2021/03/01 11:56:31;;;;;;;;;;;;;;;23.48;17.21;101757.03;5296214;27;34020;-92
2021/03/01 11:59:03;;;;;;;;;;;;;;;24.41;16.50;101754.63;5278337;27;34592;-92
2021/03/01 12:01:39;;;;;;;;;;;;;;;24.27;16.50;101746.56;5278509;27;33383;-92
2021/03/01 12:04:07;;;;;;;;;;;;;;;23.93;16.70;101744.00;5260748;27;33085;-90
2021/03/01 12:06:34;;;;;;;;;;;;;;;23.60;17.08;101749.31;5277717;27;33275;-91
2021/03/01 12:09:02;;;;;;;;;;;;;;;22.25;18.28;101742.81;5278100;27;33987;-91
2021/03/01 12:11:30;;;;;;;;;;;;;;;23.65;17.11;101748.16;5296314;27;32633;-90
2021/03/01 12:13:57;;;;;;;;;;;;;;;24.42;16.43;101742.16;5278186;27;34169;-90
2021/03/01 12:16:24;;;;;;;;;;;;;;;24.40;16.34;101736.91;5297062;27;33907;-90
2021/03/01 12:18:53;;;;;;;;;;;;;;;24.26;16.41;101737.69;5279869;27;33279;-90
2021/03/01 12:21:20;;;;;;;;;;;;;;;24.58;16.16;101742.13;5279304;27;32333;-93
2021/03/01 12:23:47;;;;;;;;;;;;;;;23.65;16.97;101740.16;5260124;27;32984;-90
2021/03/01 12:26:15;;;;;;;;;;;;;;;23.37;17.45;101745.25;5277651;27;33132;-90
2021/03/01 12:28:42;;;;;;;;;;;;;;;23.21;17.58;101740.72;5296111;27;33954;-90
2021/03/01 12:31:10;;;;;;;;;;;;;;;23.44;17.26;101739.53;5277929;27;32306;-90
2021/03/01 12:33:52;;;;;;;;;;;;;;;24.15;16.66;101740.12;5279890;27;32702;-91
2021/03/01 12:36:20;;;;;;;;;;;;;;;23.65;16.92;101739.28;5277877;27;33045;-90
2021/03/01 12:38:52;;;;;;;;;;;;;;;23.29;17.35;101735.00;5279742;27;33677;-90
2021/03/01 12:41:20;;;;;;;;;;;;;;;22.91;17.80;101737.81;5295962;27;33207;-90
2021/03/01 12:43:47;;;;;;;;;;;;;;;22.28;18.49;101740.03;5259699;27;33969;-90
2021/03/01 12:46:15;;;;;;;;;;;;;;;22.80;17.82;101738.37;5277821;27;34205;-90
2021/03/01 12:48:46;;;;;;;;;;;;;;;23.14;17.56;101742.00;5278109;27;34225;-90
2021/03/01 12:51:15;;;;;;;;;;;;;;;24.27;16.44;101733.25;5277796;27;33097;-91